Time;durP1;ratioP1;P1;durP2;ratioP2;P2;SDS_P1;SDS_P2;PMS_P1;PMS_P2;Temp;Humidity;BMP_temperature;BMP_pressure;BME280_temperature;BME280_humidity;BME280_pressure;Samples;Min_cycle;Max_cycle;Signal;HPM_P1;HPM_P2
2022/02/22 00:01:20;;;;;;;7.00;1.27;;;6.20;92.20;;;;;;10384331;28;20065;-59
2022/02/22 00:06:22;;;;;;;9.40;1.08;;;6.30;91.30;;;;;;10384534;28;20118;-59
2022/02/22 00:11:24;;;;;;;8.25;0.40;;;6.30;91.00;;;;;;10381452;28;20073;-60
2022/02/22 00:16:26;;;;;;;4.32;0.50;;;6.20;90.80;;;;;;10385616;28;20116;-60
2022/02/22 00:21:28;;;;;;;8.02;0.80;;;6.30;88.50;;;;;;10387831;28;20461;-59
2022/02/22 00:26:29;;;;;;;9.88;0.32;;;6.30;85.40;;;;;;10387400;28;20111;-60
2022/02/22 00:31:31;;;;;;;7.45;0.60;;;6.30;86.30;;;;;;10388217;28;20082;-59
2022/02/22 00:36:34;;;;;;;5.90;0.40;;;6.20;88.30;;;;;;10385543;28;20151;-60
2022/02/22 00:41:36;;;;;;;7.88;1.42;;;6.20;90.00;;;;;;10391402;28;20044;-59
2022/02/22 00:46:38;;;;;;;10.30;0.93;;;6.20;90.10;;;;;;10393333;28;20095;-59
2022/02/22 00:51:39;;;;;;;13.98;1.27;;;6.20;90.40;;;;;;10388363;28;20129;-60
2022/02/22 00:56:41;;;;;;;7.40;0.73;;;6.20;91.30;;;;;;10383994;28;20058;-60
2022/02/22 01:01:43;;;;;;;9.82;0.60;;;6.20;91.40;;;;;;10385372;28;20464;-59
2022/02/22 01:06:44;;;;;;;6.47;0.50;;;6.20;91.80;;;;;;10385889;28;20500;-60
2022/02/22 01:11:46;;;;;;;7.93;0.60;;;6.20;91.90;;;;;;10379816;28;20053;-59
2022/02/22 01:16:48;;;;;;;7.07;1.08;;;6.20;92.50;;;;;;10402181;28;20455;-59
2022/02/22 01:21:50;;;;;;;8.40;0.70;;;6.20;92.30;;;;;;10382505;28;20080;-59
2022/02/22 01:26:51;;;;;;;11.05;0.88;;;6.20;92.20;;;;;;10390848;28;20076;-59
2022/02/22 01:31:53;;;;;;;8.25;0.60;;;6.20;91.20;;;;;;10383789;28;20042;-59
2022/02/22 01:36:55;;;;;;;8.95;0.73;;;6.20;91.20;;;;;;10384130;28;20510;-60
2022/02/22 01:41:56;;;;;;;9.07;1.13;;;6.10;91.10;;;;;;10388559;28;20077;-59
2022/02/22 01:47:04;;;;;;;7.80;1.17;;;6.00;91.10;;;;;;10383250;28;20103;-59
2022/02/22 01:52:05;;;;;;;;;;;6.00;89.60;;;;;;10387144;28;20053;-60
2022/02/22 01:57:07;;;;;;;7.78;1.20;;;6.10;89.00;;;;;;10388414;28;20045;-59
2022/02/22 02:02:09;;;;;;;7.40;1.20;;;5.90;90.10;;;;;;10382275;28;20126;-60
2022/02/22 02:07:10;;;;;;;10.85;1.10;;;5.80;90.10;;;;;;10387926;28;20041;-61
2022/02/22 02:12:12;;;;;;;12.38;0.50;;;5.80;90.20;;;;;;10383136;28;20119;-61
2022/02/22 02:17:14;;;;;;;13.48;1.23;;;5.70;90.20;;;;;;10387251;28;20076;-60
2022/02/22 02:22:15;;;;;;;16.23;2.15;;;5.80;89.80;;;;;;10382911;28;20095;-60
2022/02/22 02:27:18;;;;;;;7.72;0.80;;;5.70;90.20;;;;;;10385166;28;20138;-60
2022/02/22 02:32:19;;;;;;;13.82;0.88;;;5.60;91.20;;;;;;10389017;28;20146;-59
2022/02/22 02:37:21;;;;;;;13.52;0.80;;;5.60;91.20;;;;;;10382397;28;20109;-60
2022/02/22 02:42:23;;;;;;;18.65;1.63;;;5.60;91.40;;;;;;10380702;28;20081;-61
2022/02/22 02:47:24;;;;;;;11.60;1.02;;;5.60;91.90;;;;;;10381587;28;20085;-60
2022/02/22 02:52:26;;;;;;;10.55;0.68;;;5.50;92.90;;;;;;10378799;28;20472;-62
2022/02/22 02:57:28;;;;;;;11.43;0.95;;;5.50;92.40;;;;;;10383573;28;20056;-60
2022/02/22 03:02:30;;;;;;;8.98;1.25;;;5.40;92.40;;;;;;10383326;28;20700;-59
2022/02/22 03:07:31;;;;;;;12.65;1.08;;;5.40;92.60;;;;;;10380842;28;20160;-60
2022/02/22 03:12:33;;;;;;;8.52;0.85;;;5.50;92.10;;;;;;10379637;28;20103;-60
2022/02/22 03:17:35;;;;;;;13.80;1.25;;;5.40;92.40;;;;;;10382771;28;20073;-60
2022/02/22 03:22:45;;;;;;;12.93;0.50;;;5.50;92.20;;;;;;10377436;28;20049;-59
2022/02/22 03:27:46;;;;;;;16.70;1.05;;;5.50;92.50;;;;;;10384057;28;20151;-59
2022/02/22 03:32:48;;;;;;;11.60;0.93;;;5.60;91.70;;;;;;10382915;28;20102;-59
2022/02/22 03:37:49;;;;;;;25.85;1.20;;;5.70;90.50;;;;;;10379575;28;20076;-60
2022/02/22 03:42:51;;;;;;;16.90;0.90;;;5.80;90.00;;;;;;10380264;28;20053;-60
2022/02/22 03:47:55;;;;;;;17.52;1.35;;;5.80;89.70;;;;;;10377854;28;20053;-59
2022/02/22 03:52:56;;;;;;;15.05;0.68;;;5.80;89.40;;;;;;10383188;28;20077;-59
2022/02/22 03:57:58;;;;;;;10.05;1.35;;;5.80;88.50;;;;;;10387598;28;20198;-60
2022/02/22 04:02:59;;;;;;;6.78;0.70;;;5.90;86.80;;;;;;10388583;28;20072;-60
2022/02/22 04:08:02;;;;;;;5.47;1.10;;;5.80;87.70;;;;;;10387451;28;20574;-59
2022/02/22 04:13:04;;;;;;;9.77;1.13;;;5.70;89.00;;;;;;10389553;28;20184;-59
2022/02/22 04:18:05;;;;;;;11.43;0.88;;;5.60;90.00;;;;;;10386367;28;25319;-60
2022/02/22 04:23:07;;;;;;;12.85;1.10;;;5.50;90.50;;;;;;10386407;28;20575;-60
2022/02/22 04:28:10;;;;;;;7.68;0.70;;;5.40;90.70;;;;;;10385816;28;20045;-59
2022/02/22 04:33:11;;;;;;;10.32;0.50;;;5.40;90.30;;;;;;10393729;28;20500;-61
2022/02/22 04:38:14;;;;;;;7.75;0.88;;;5.30;91.10;;;;;;10386065;28;20049;-60
2022/02/22 04:43:16;;;;;;;8.52;1.02;;;5.20;91.70;;;;;;10389091;28;20106;-60
2022/02/22 04:48:17;;;;;;;8.80;1.23;;;5.10;92.90;;;;;;10388700;28;20767;-60
2022/02/22 04:53:19;;;;;;;13.35;1.80;;;5.00;93.70;;;;;;10383906;28;20124;-59
2022/02/22 04:58:21;;;;;;;11.85;1.45;;;5.00;93.60;;;;;;10386310;28;20331;-59
2022/02/22 05:03:22;;;;;;;11.68;1.10;;;5.00;93.70;;;;;;10385496;28;20045;-59
2022/02/22 05:08:24;;;;;;;8.63;1.38;;;5.00;93.80;;;;;;10381170;28;20625;-59
2022/02/22 05:13:26;;;;;;;7.50;0.90;;;5.00;94.10;;;;;;10385412;28;20080;-59
2022/02/22 05:18:29;;;;;;;13.30;2.25;;;5.10;94.00;;;;;;10391112;28;20752;-59
2022/02/22 05:23:33;;;;;;;13.60;1.00;;;5.00;94.40;;;;;;10385620;28;20041;-59
2022/02/22 05:28:35;;;;;;;12.43;1.60;;;5.10;94.70;;;;;;10379575;28;20465;-60
2022/02/22 05:33:37;;;;;;;9.13;1.50;;;5.10;94.50;;;;;;10383196;28;20083;-59
2022/02/22 05:38:39;;;;;;;9.40;0.70;;;5.10;93.60;;;;;;10380141;28;20065;-60
2022/02/22 05:43:48;;;;;;;11.85;1.65;;;5.00;93.70;;;;;;10381973;28;20049;-61
2022/02/22 05:48:50;;;;;;;2.90;0.73;;;5.10;92.80;;;;;;10389518;28;20041;-61
2022/02/22 05:53:52;;;;;;;6.18;0.55;;;5.00;93.00;;;;;;10390711;28;20085;-59
2022/02/22 05:58:56;;;;;;;8.63;0.93;;;5.00;93.10;;;;;;10379853;28;20049;-59
2022/02/22 06:03:57;;;;;;;16.92;1.05;;;5.00;94.20;;;;;;10382096;28;20048;-61
2022/02/22 06:08:59;;;;;;;17.73;1.02;;;5.00;94.00;;;;;;10377467;28;20122;-61
2022/02/22 06:14:01;;;;;;;7.05;1.13;;;5.00;93.90;;;;;;10383226;28;20045;-59
2022/02/22 06:19:03;;;;;;;12.95;1.25;;;5.00;94.40;;;;;;10379901;28;20139;-59
2022/02/22 06:24:05;;;;;;;14.93;0.98;;;5.00;94.70;;;;;;10384425;28;20178;-66
2022/02/22 06:29:07;;;;;;;9.02;1.23;;;5.00;95.20;;;;;;10381254;28;20112;-66
2022/02/22 06:34:08;;;;;;;11.27;1.25;;;5.00;93.70;;;;;;10379520;28;20459;-66
2022/02/22 06:39:10;;;;;;;8.98;0.80;;;5.00;93.60;;;;;;10379443;28;20053;-66
2022/02/22 06:44:12;;;;;;;11.48;1.05;;;5.10;93.90;;;;;;10382686;28;20053;-66
2022/02/22 06:49:13;;;;;;;14.65;1.80;;;5.10;93.70;;;;;;10380345;28;20120;-65
2022/02/22 06:54:15;;;;;;;10.25;0.98;;;5.10;94.10;;;;;;10375789;28;20077;-67
2022/02/22 06:59:17;;;;;;;17.17;1.00;;;5.10;93.80;;;;;;10380825;28;20092;-67
2022/02/22 07:04:18;;;;;;;13.27;1.10;;;5.10;93.50;;;;;;10376982;28;20600;-66
2022/02/22 07:09:20;;;;;;;9.55;1.95;;;5.10;94.10;;;;;;10379888;28;20417;-66
2022/02/22 07:14:22;;;;;;;11.25;1.05;;;5.20;93.90;;;;;;10379839;28;20667;-66
2022/02/22 07:19:24;;;;;;;16.42;0.80;;;5.30;94.50;;;;;;10379120;28;20061;-66
2022/02/22 07:24:25;;;;;;;9.95;0.65;;;5.40;93.50;;;;;;10379714;28;20041;-66
2022/02/22 07:29:28;;;;;;;8.77;1.20;;;5.40;93.20;;;;;;10391221;28;20550;-66
2022/02/22 07:34:30;;;;;;;15.95;1.20;;;5.50;93.30;;;;;;10386177;28;20440;-66
2022/02/22 07:39:31;;;;;;;7.07;0.82;;;5.50;92.60;;;;;;10389591;28;20115;-66
2022/02/22 07:44:33;;;;;;;12.02;0.73;;;5.60;92.60;;;;;;10389119;28;20064;-66
2022/02/22 07:49:35;;;;;;;15.15;2.20;;;5.60;92.90;;;;;;10386855;28;20132;-66
2022/02/22 07:54:57;;;;;;;17.48;1.70;;;5.60;93.30;;;;;;10384231;28;20056;-66
2022/02/22 07:59:59;;;;;;;15.77;0.70;;;5.60;93.90;;;;;;10385746;28;20077;-66
2022/02/22 08:05:00;;;;;;;7.93;0.70;;;5.80;93.30;;;;;;10392582;28;20107;-64
2022/02/22 08:10:04;;;;;;;10.60;0.70;;;5.90;93.20;;;;;;10389128;28;20112;-65
2022/02/22 08:15:07;;;;;;;6.57;0.50;;;5.90;92.30;;;;;;10380222;28;20073;-65
2022/02/22 08:20:10;;;;;;;9.75;1.55;;;5.90;92.40;;;;;;10387415;28;20120;-65
2022/02/22 08:25:11;;;;;;;12.30;1.58;;;5.90;91.60;;;;;;10389732;28;20107;-65
2022/02/22 08:30:13;;;;;;;10.88;0.90;;;6.00;91.30;;;;;;10380282;28;20054;-65
2022/02/22 08:35:15;;;;;;;10.25;0.88;;;6.10;89.90;;;;;;10391099;28;20762;-65
2022/02/22 08:40:17;;;;;;;12.50;1.48;;;6.20;90.40;;;;;;10384122;28;20049;-65
2022/02/22 08:45:19;;;;;;;7.40;0.65;;;6.30;88.10;;;;;;10388225;28;20049;-65
2022/02/22 08:50:21;;;;;;;15.27;1.38;;;6.30;87.40;;;;;;10382363;28;20033;-65
2022/02/22 08:55:23;;;;;;;6.43;0.70;;;6.30;86.10;;;;;;10379040;28;20061;-65
2022/02/22 09:00:27;;;;;;;6.90;1.08;;;6.40;85.40;;;;;;10387883;28;20107;-65
2022/02/22 09:05:30;;;;;;;7.70;0.55;;;6.70;83.90;;;;;;10406324;28;20056;-65
2022/02/22 09:10:32;;;;;;;5.93;0.82;;;7.10;83.10;;;;;;10384393;28;20045;-65
2022/02/22 09:15:34;;;;;;;11.75;1.00;;;7.10;80.10;;;;;;10384445;28;20908;-65
2022/02/22 09:20:36;;;;;;;12.88;0.68;;;7.20;80.30;;;;;;10384761;28;20053;-66
2022/02/22 09:25:41;;;;;;;12.10;0.90;;;7.20;80.70;;;;;;10384510;28;20049;-65
2022/02/22 09:30:43;;;;;;;6.78;0.52;;;7.30;79.70;;;;;;10385345;28;20480;-65
2022/02/22 09:35:46;;;;;;;8.45;0.68;;;7.50;79.50;;;;;;10385010;28;20049;-66
2022/02/22 09:40:48;;;;;;;5.57;0.55;;;7.60;78.60;;;;;;10380597;28;20056;-65
2022/02/22 09:45:50;;;;;;;9.57;1.05;;;7.80;78.30;;;;;;10380954;28;20128;-65
2022/02/22 09:50:53;;;;;;;3.75;0.50;;;7.90;78.00;;;;;;10383217;28;20061;-65
2022/02/22 09:55:56;;;;;;;8.80;0.57;;;8.10;77.50;;;;;;10378615;28;20053;-65
2022/02/22 10:01:00;;;;;;;8.32;0.60;;;8.10;75.70;;;;;;10394707;28;20615;-65
2022/02/22 10:06:03;;;;;;;3.70;0.30;;;8.20;75.10;;;;;;10383858;28;20045;-65
2022/02/22 10:11:11;;;;;;;3.67;0.30;;;8.10;74.50;;;;;;10381144;28;20037;-65
2022/02/22 10:16:21;;;;;;;6.15;0.45;;;8.20;75.10;;;;;;10361698;27;20860;-64
2022/02/22 10:21:54;;;;;;;6.07;0.50;;;8.20;76.50;;;;;;10344370;28;20046;-64
2022/02/22 10:27:02;;;;;;;8.43;0.63;;;8.40;77.20;;;;;;10386789;28;20053;-64
2022/02/22 10:32:11;;;;;;;6.57;1.25;;;8.40;77.50;;;;;;10374796;28;20045;-63
2022/02/22 10:37:12;;;;;;;6.80;1.65;;;8.40;78.40;;;;;;10373195;28;20532;-64
2022/02/22 10:42:14;;;;;;;8.73;0.75;;;8.40;78.00;;;;;;10380206;28;20038;-64
2022/02/22 10:47:20;;;;;;;7.07;0.52;;;8.60;79.80;;;;;;10380401;28;20120;-66
2022/02/22 10:52:29;;;;;;;9.13;0.80;;;8.60;78.70;;;;;;10378463;28;20046;-64
2022/02/22 10:57:32;;;;;;;9.25;0.93;;;8.70;77.60;;;;;;10373905;28;20057;-64
2022/02/22 11:02:35;;;;;;;8.88;0.50;;;8.70;78.00;;;;;;10370490;28;20053;-65
2022/02/22 11:07:56;;;;;;;6.82;0.60;;;8.60;79.30;;;;;;10369806;28;20147;-65
2022/02/22 11:13:00;;;;;;;8.43;0.85;;;8.90;79.10;;;;;;10374447;28;20050;-65
2022/02/22 11:18:24;;;;;;;5.68;0.73;;;9.10;78.50;;;;;;10373839;28;20072;-65
2022/02/22 11:23:28;;;;;;;5.35;1.15;;;8.90;77.80;;;;;;10370443;28;20050;-65
2022/02/22 11:28:35;;;;;;;5.30;0.40;;;9.10;77.40;;;;;;10342465;28;20050;-64
2022/02/22 11:33:46;;;;;;;3.00;0.40;;;9.10;76.60;;;;;;10344383;28;20066;-64
2022/02/22 11:38:48;;;;;;;7.97;0.70;;;9.30;76.10;;;;;;10336327;28;20572;-64
2022/02/22 11:44:09;;;;;;;4.95;0.55;;;9.30;75.80;;;;;;10349062;28;20037;-64
2022/02/22 11:49:27;;;;;;;2.90;0.65;;;9.30;76.40;;;;;;10351062;28;20060;-65
2022/02/22 11:54:42;;;;;;;3.47;0.93;;;9.20;76.70;;;;;;10343226;28;20046;-65
2022/02/22 11:59:49;;;;;;;5.53;0.57;;;9.30;77.00;;;;;;10348848;28;20535;-65
2022/02/22 12:04:51;;;;;;;5.97;0.55;;;9.30;76.60;;;;;;10348787;28;20049;-65
2022/02/22 12:09:59;;;;;;;7.45;0.60;;;9.30;76.60;;;;;;10339320;28;20053;-65
2022/02/22 12:15:02;;;;;;;4.75;0.52;;;9.30;78.00;;;;;;10350966;28;20054;-64
2022/02/22 12:20:04;;;;;;;4.85;1.02;;;9.30;78.50;;;;;;10328036;28;20057;-65
2022/02/22 12:25:07;;;;;;;1.45;0.68;;;9.40;77.40;;;;;;10344641;28;20521;-65
2022/02/22 12:30:09;;;;;;;3.47;0.52;;;9.30;78.00;;;;;;10344811;28;20136;-65
2022/02/22 12:35:15;;;;;;;4.78;0.60;;;9.30;77.50;;;;;;10336515;28;20057;-64
2022/02/22 12:40:36;;;;;;;1.63;0.40;;;9.40;77.20;;;;;;10350225;28;20129;-65
2022/02/22 12:45:57;;;;;;;2.25;0.45;;;9.40;77.50;;;;;;10342073;28;20404;-65
2022/02/22 12:50:59;;;;;;;3.67;0.50;;;9.30;78.20;;;;;;10342303;28;20054;-65
2022/02/22 12:56:01;;;;;;;5.85;1.15;;;9.30;79.10;;;;;;10341491;28;20042;-65
2022/02/22 13:01:13;;;;;;;6.10;0.40;;;9.40;79.50;;;;;;10343426;28;20139;-65
2022/02/22 13:06:18;;;;;;;4.28;0.60;;;9.50;80.10;;;;;;10336972;28;20057;-65
2022/02/22 13:11:33;;;;;;;4.80;0.50;;;9.40;79.80;;;;;;10344673;28;20050;-65
2022/02/22 13:16:35;;;;;;;6.32;1.20;;;9.40;81.00;;;;;;10343455;28;20397;-65
2022/02/22 13:21:39;;;;;;;5.20;0.50;;;9.30;81.10;;;;;;10337297;28;20058;-65
2022/02/22 13:26:46;;;;;;;9.52;0.77;;;9.30;81.60;;;;;;10340539;28;20108;-65
2022/02/22 13:32:15;;;;;;;5.18;0.55;;;9.30;82.00;;;;;;10343301;28;20105;-64
2022/02/22 13:37:30;;;;;;;7.45;1.13;;;9.30;82.80;;;;;;10341352;28;20480;-64
2022/02/22 13:42:33;;;;;;;10.93;1.10;;;9.30;83.10;;;;;;10339532;28;20069;-64
2022/02/22 13:47:38;;;;;;;6.72;0.75;;;9.30;82.80;;;;;;10340405;28;20149;-63
2022/02/22 13:52:40;;;;;;;10.75;1.98;;;9.30;85.00;;;;;;10342982;28;20058;-64
2022/02/22 13:57:46;;;;;;;5.88;0.50;;;9.60;84.20;;;;;;10342485;28;20135;-65
2022/02/22 14:02:58;;;;;;;1.73;0.40;;;9.50;84.40;;;;;;10340725;28;20086;-63
2022/02/22 14:08:02;;;;;;;7.65;1.27;;;9.40;84.60;;;;;;10352669;28;20462;-65
2022/02/22 14:13:04;;;;;;;6.35;0.63;;;9.10;87.90;;;;;;10348460;28;20091;-65
2022/02/22 14:18:07;;;;;;;8.18;1.58;;;8.90;89.90;;;;;;10338778;28;20706;-64
2022/02/22 14:23:09;;;;;;;9.77;0.93;;;8.70;91.50;;;;;;10343202;28;20077;-63
2022/02/22 14:28:11;;;;;;;7.32;1.27;;;8.80;92.80;;;;;;10341556;28;20050;-64
2022/02/22 14:33:13;;;;;;;12.32;1.00;;;8.70;96.10;;;;;;10348091;28;20066;-64
2022/02/22 14:38:16;;;;;;;10.93;1.50;;;8.50;99.90;;;;;;10339385;28;20545;-65
2022/02/22 14:43:19;;;;;;;10.75;1.65;;;8.20;99.90;;;;;;10335260;28;20050;-64
2022/02/22 14:48:22;;;;;;;8.77;1.25;;;8.20;99.90;;;;;;10342696;28;20429;-64
2022/02/22 14:53:24;;;;;;;10.60;0.90;;;8.10;99.90;;;;;;10338934;28;20082;-64
2022/02/22 14:58:25;;;;;;;6.15;1.02;;;8.10;99.90;;;;;;10338022;28;20054;-64
2022/02/22 15:03:27;;;;;;;12.43;1.23;;;8.00;99.90;;;;;;10347656;28;20107;-64
2022/02/22 15:08:29;;;;;;;9.00;0.95;;;7.90;99.90;;;;;;10352326;28;20513;-63
2022/02/22 15:13:31;;;;;;;14.40;0.98;;;7.80;99.90;;;;;;10343906;28;20054;-64
2022/02/22 15:18:34;;;;;;;11.02;1.77;;;7.70;99.90;;;;;;10347937;28;20101;-64
2022/02/22 15:23:36;;;;;;;9.27;1.88;;;7.60;99.90;;;;;;10342648;28;20046;-63
2022/02/22 15:28:38;;;;;;;13.20;1.50;;;7.60;99.90;;;;;;10342451;28;20068;-64
2022/02/22 15:33:40;;;;;;;15.52;1.30;;;7.60;99.90;;;;;;10345798;28;20384;-65
2022/02/22 15:38:42;;;;;;;22.17;1.58;;;7.60;99.90;;;;;;10345589;28;20404;-64
2022/02/22 15:43:46;;;;;;;14.65;1.52;;;7.60;99.90;;;;;;10345879;28;20042;-64
2022/02/22 15:48:47;;;;;;;16.10;1.98;;;7.60;99.90;;;;;;10347167;28;20055;-64
2022/02/22 15:53:49;;;;;;;13.15;1.65;;;7.50;99.90;;;;;;10343119;28;20141;-63
2022/02/22 15:58:51;;;;;;;24.95;2.08;;;7.40;99.90;;;;;;10350353;28;20076;-64
2022/02/22 16:03:53;;;;;;;15.25;1.92;;;7.30;99.90;;;;;;10348248;28;20428;-64
2022/02/22 16:08:54;;;;;;;10.98;2.97;;;7.10;99.90;;;;;;10340467;28;20107;-64
2022/02/22 16:13:56;;;;;;;13.73;1.50;;;7.10;99.90;;;;;;10343337;28;20064;-65
2022/02/22 16:18:58;;;;;;;19.27;1.92;;;7.10;99.90;;;;;;10339223;28;20065;-66
2022/02/22 16:24:00;;;;;;;14.27;1.55;;;7.10;99.90;;;;;;10345432;28;20108;-66
2022/02/22 16:29:03;;;;;;;17.17;1.30;;;7.10;99.90;;;;;;10349230;28;20046;-65
2022/02/22 16:34:04;;;;;;;11.63;1.20;;;7.20;99.90;;;;;;10345666;28;20042;-65
2022/02/22 16:39:07;;;;;;;10.23;1.35;;;7.20;99.90;;;;;;10346411;28;20481;-66
2022/02/22 16:44:09;;;;;;;12.65;1.20;;;7.30;99.90;;;;;;10349695;28;20632;-66
2022/02/22 16:49:11;;;;;;;9.73;1.27;;;7.30;99.90;;;;;;10345828;28;20504;-65
2022/02/22 16:54:13;;;;;;;12.02;1.70;;;7.40;99.90;;;;;;10343823;28;20319;-65
2022/02/22 16:59:15;;;;;;;12.52;0.98;;;7.40;99.90;;;;;;10344990;28;20050;-65
2022/02/22 17:04:19;;;;;;;11.60;1.45;;;7.50;99.90;;;;;;10343497;28;20061;-65
2022/02/22 17:09:21;;;;;;;7.93;1.30;;;7.50;99.90;;;;;;10339884;28;20049;-65
2022/02/22 17:14:23;;;;;;;7.68;1.23;;;7.60;99.90;;;;;;10333620;28;20050;-65
2022/02/22 17:19:24;;;;;;;7.63;0.60;;;7.70;99.90;;;;;;10339050;28;20066;-65
2022/02/22 17:24:28;;;;;;;9.50;0.90;;;7.70;99.90;;;;;;10343152;28;20057;-64
2022/02/22 17:29:30;;;;;;;12.07;1.73;;;7.70;99.90;;;;;;10345697;28;20046;-64
2022/02/22 17:34:31;;;;;;;7.47;2.00;;;7.80;99.90;;;;;;10344407;28;20635;-63
2022/02/22 17:39:33;;;;;;;5.90;0.80;;;7.80;99.90;;;;;;10340914;28;20556;-63
2022/02/22 17:44:36;;;;;;;8.55;2.00;;;7.90;99.90;;;;;;10338864;28;20064;-63
2022/02/22 17:49:38;;;;;;;4.70;1.33;;;7.90;99.90;;;;;;10348998;28;20064;-64
2022/02/22 17:54:40;;;;;;;4.95;0.50;;;7.90;99.90;;;;;;10345576;28;20111;-63
2022/02/22 17:59:42;;;;;;;10.00;0.82;;;8.00;99.90;;;;;;10332802;28;20060;-63
2022/02/22 18:04:44;;;;;;;9.52;1.23;;;8.00;99.90;;;;;;10333561;28;22016;-63
2022/02/22 18:09:46;;;;;;;7.63;0.90;;;8.00;99.90;;;;;;10335780;28;20073;-64
2022/02/22 18:14:47;;;;;;;5.40;0.98;;;8.00;99.90;;;;;;10340672;28;20045;-63
2022/02/22 18:19:50;;;;;;;4.72;0.93;;;8.10;99.90;;;;;;10348558;28;20069;-63
2022/02/22 18:24:52;;;;;;;5.40;0.82;;;8.10;99.90;;;;;;10334813;28;20363;-63
2022/02/22 18:29:54;;;;;;;7.57;0.68;;;8.10;99.90;;;;;;10340061;28;20045;-63
2022/02/22 18:34:57;;;;;;;5.15;0.68;;;8.10;99.90;;;;;;10340232;28;20081;-63
2022/02/22 18:39:59;;;;;;;7.95;1.20;;;8.20;99.90;;;;;;10342754;28;20058;-63
2022/02/22 18:45:00;;;;;;;7.78;0.80;;;8.20;99.90;;;;;;10342848;28;20050;-64
2022/02/22 18:50:04;;;;;;;3.95;0.73;;;8.30;99.90;;;;;;10342291;28;20108;-63
2022/02/22 18:55:06;;;;;;;7.28;0.70;;;8.20;99.90;;;;;;10347985;28;20129;-65
2022/02/22 19:00:12;;;;;;;4.60;1.23;;;8.20;99.90;;;;;;10336529;28;20062;-63
2022/02/22 19:05:16;;;;;;;3.95;0.55;;;8.30;99.90;;;;;;10349210;28;20144;-62
2022/02/22 19:10:18;;;;;;;5.18;1.13;;;8.30;99.90;;;;;;10348885;28;20073;-63
2022/02/22 19:15:20;;;;;;;3.15;0.70;;;8.30;99.90;;;;;;10350584;28;20081;-62
2022/02/22 19:20:22;;;;;;;9.25;1.10;;;8.30;99.90;;;;;;10343450;28;20100;-62
2022/02/22 19:25:24;;;;;;;4.63;1.10;;;8.30;99.90;;;;;;10342088;28;20125;-62
2022/02/22 19:30:25;;;;;;;6.13;1.23;;;8.20;99.90;;;;;;10343646;28;20556;-63
2022/02/22 19:35:27;;;;;;;4.18;0.50;;;8.20;99.90;;;;;;10346086;28;20054;-63
2022/02/22 19:40:29;;;;;;;7.93;0.73;;;8.10;99.90;;;;;;10353198;28;20792;-63
2022/02/22 19:45:31;;;;;;;5.55;1.15;;;8.00;99.90;;;;;;10340816;28;20064;-62
2022/02/22 19:50:33;;;;;;;3.78;0.70;;;8.00;99.90;;;;;;10341239;28;20477;-62
2022/02/22 19:55:41;;;;;;;4.20;0.90;;;7.90;99.90;;;;;;10339002;28;20054;-62
2022/02/22 20:00:44;;;;;;;7.85;0.60;;;7.90;99.90;;;;;;10337256;28;20534;-62
2022/02/22 20:05:49;;;;;;;5.78;0.88;;;7.90;99.90;;;;;;10332657;28;20213;-62
2022/02/22 20:10:50;;;;;;;4.57;1.52;;;7.80;99.90;;;;;;10341792;28;20046;-62
2022/02/22 20:15:53;;;;;;;4.85;0.85;;;7.80;99.90;;;;;;10289374;28;20073;-61
2022/02/22 20:20:55;;;;;;;4.40;1.00;;;7.70;99.90;;;;;;10341148;28;20543;-62
2022/02/22 20:25:56;;;;;;;6.95;2.72;;;7.70;99.90;;;;;;10342218;28;20073;-63
2022/02/22 20:30:58;;;;;;;6.03;1.40;;;7.70;99.90;;;;;;10348595;28;20077;-64
2022/02/22 20:36:00;;;;;;;5.28;1.10;;;7.70;99.90;;;;;;10347898;28;20049;-63
2022/02/22 20:41:02;;;;;;;3.75;1.27;;;7.80;99.90;;;;;;10335185;28;20042;-62
2022/02/22 20:46:04;;;;;;;6.88;0.98;;;7.80;99.90;;;;;;10339815;28;20072;-62
2022/02/22 20:51:06;;;;;;;5.97;0.98;;;7.90;99.90;;;;;;10337082;28;20484;-62
2022/02/22 20:56:08;;;;;;;7.25;1.30;;;8.00;99.90;;;;;;10343368;28;20120;-63
2022/02/22 21:01:13;;;;;;;7.07;0.90;;;8.00;99.90;;;;;;10341458;28;20054;-62
2022/02/22 21:06:16;;;;;;;3.63;1.02;;;8.00;99.90;;;;;;10337445;28;20096;-63
2022/02/22 21:11:18;;;;;;;7.50;1.30;;;8.10;99.90;;;;;;10349655;28;20056;-63
2022/02/22 21:16:20;;;;;;;4.32;1.20;;;8.10;99.90;;;;;;10328332;28;20053;-62
2022/02/22 21:21:24;;;;;;;2.45;1.10;;;8.10;99.90;;;;;;10330649;28;20551;-63
2022/02/22 21:26:26;;;;;;;8.48;1.10;;;8.10;99.90;;;;;;10340759;28;20508;-63
2022/02/22 21:31:28;;;;;;;3.05;1.17;;;8.20;99.90;;;;;;10339045;28;20046;-63
2022/02/22 21:36:30;;;;;;;3.35;1.20;;;8.10;99.90;;;;;;10341336;28;20050;-62
2022/02/22 21:41:34;;;;;;;2.38;1.00;;;8.10;99.90;;;;;;10345333;28;20050;-63
2022/02/22 21:46:36;;;;;;;5.75;1.05;;;8.10;99.90;;;;;;10339975;28;20054;-63
2022/02/22 21:51:38;;;;;;;2.38;0.90;;;8.10;99.90;;;;;;10341699;28;20061;-64
2022/02/22 21:56:40;;;;;;;2.88;1.10;;;8.10;99.90;;;;;;10341712;28;20081;-63
2022/02/22 22:01:44;;;;;;;2.83;0.95;;;8.10;99.90;;;;;;10344782;28;20049;-64
2022/02/22 22:06:46;;;;;;;6.32;1.23;;;8.10;99.90;;;;;;10344437;28;20057;-63
2022/02/22 22:11:48;;;;;;;2.92;0.98;;;8.10;99.90;;;;;;10340639;28;20050;-62
2022/02/22 22:16:49;;;;;;;1.20;0.52;;;8.10;99.90;;;;;;10333371;28;20057;-62
2022/02/22 22:21:51;;;;;;;4.35;0.40;;;8.10;99.90;;;;;;10339173;28;20126;-62
2022/02/22 22:26:53;;;;;;;0.57;0.10;;;8.10;99.90;;;;;;10339543;28;20081;-63
2022/02/22 22:31:54;;;;;;;1.20;0.20;;;8.10;99.90;;;;;;10337545;28;20509;-63
2022/02/22 22:36:56;;;;;;;0.50;0.10;;;8.00;99.90;;;;;;10335443;28;20116;-63
2022/02/22 22:41:58;;;;;;;2.75;0.32;;;7.90;99.90;;;;;;10336645;28;20046;-63
2022/02/22 22:47:00;;;;;;;1.33;0.10;;;7.70;99.90;;;;;;10341665;28;20087;-62
2022/02/22 22:52:01;;;;;;;0.55;0.10;;;7.70;99.90;;;;;;10338604;28;20062;-62
2022/02/22 22:57:04;;;;;;;2.78;0.10;;;7.60;99.90;;;;;;10337580;28;20046;-62
2022/02/22 23:02:06;;;;;;;0.40;0.20;;;7.50;99.90;;;;;;10340157;28;20402;-62
2022/02/22 23:17:49;;;;;;;0.85;0.10;;;7.40;99.90;;;;;;10332980;28;20124;-62
2022/02/22 23:22:50;;;;;;;4.00;0.20;;;7.30;99.90;;;;;;10345181;28;20077;-62
2022/02/22 23:27:52;;;;;;;3.58;0.57;;;7.30;99.90;;;;;;10345694;28;20046;-62
2022/02/22 23:32:54;;;;;;;3.22;0.30;;;7.40;99.90;;;;;;10351780;28;20053;-62
2022/02/22 23:37:55;;;;;;;6.65;0.38;;;7.30;99.90;;;;;;10350005;28;20046;-62
2022/02/22 23:42:57;;;;;;;6.50;0.50;;;7.20;99.90;;;;;;10343585;28;20050;-62
2022/02/22 23:47:59;;;;;;;7.88;0.50;;;7.20;99.90;;;;;;10344675;28;20052;-62
2022/02/22 23:53:00;;;;;;;8.93;0.80;;;7.20;99.90;;;;;;10339251;28;20043;-62
2022/02/22 23:58:02;;;;;;;6.22;0.50;;;7.10;99.90;;;;;;10339567;28;20053;-62
